sensor_id;sensor_type;location;lat;lon;timestamp;P1;durP1;ratioP1;P2;durP2;ratioP2
11970;SDS011;6045;42.682;23.294;2023-01-15T00:01:34;11.40;;;6.73;;
11970;SDS011;6045;42.682;23.294;2023-01-15T00:04:02;11.33;;;5.43;;
11970;SDS011;6045;42.682;23.294;2023-01-15T00:06:34;10.93;;;4.73;;
11970;SDS011;6045;42.682;23.294;2023-01-15T00:09:02;8.73;;;5.30;;
11970;SDS011;6045;42.682;23.294;2023-01-15T00:11:29;9.07;;;5.60;;
11970;SDS011;6045;42.682;23.294;2023-01-15T00:13:56;10.97;;;5.03;;
11970;SDS011;6045;42.682;23.294;2023-01-15T00:16:24;8.00;;;5.40;;
11970;SDS011;6045;42.682;23.294;2023-01-15T00:18:52;9.50;;;5.20;;
11970;SDS011;6045;42.682;23.294;2023-01-15T00:21:21;10.43;;;5.67;;
11970;SDS011;6045;42.682;23.294;2023-01-15T00:23:50;7.50;;;4.43;;
11970;SDS011;6045;42.682;23.294;2023-01-15T00:26:36;7.70;;;4.57;;
11970;SDS011;6045;42.682;23.294;2023-01-15T00:29:21;5.53;;;4.50;;
11970;SDS011;6045;42.682;23.294;2023-01-15T00:31:52;8.70;;;3.87;;
11970;SDS011;6045;42.682;23.294;2023-01-15T00:34:24;5.13;;;4.10;;
11970;SDS011;6045;42.682;23.294;2023-01-15T00:36:52;11.77;;;4.57;;
11970;SDS011;6045;42.682;23.294;2023-01-15T00:39:20;5.33;;;3.67;;
11970;SDS011;6045;42.682;23.294;2023-01-15T00:41:48;7.27;;;4.73;;
11970;SDS011;6045;42.682;23.294;2023-01-15T00:44:15;6.50;;;4.57;;
11970;SDS011;6045;42.682;23.294;2023-01-15T00:46:42;6.30;;;4.50;;
11970;SDS011;6045;42.682;23.294;2023-01-15T00:49:09;7.90;;;4.57;;
11970;SDS011;6045;42.682;23.294;2023-01-15T00:51:36;7.00;;;4.30;;
11970;SDS011;6045;42.682;23.294;2023-01-15T00:54:03;7.77;;;4.10;;
11970;SDS011;6045;42.682;23.294;2023-01-15T00:56:32;10.53;;;5.07;;
11970;SDS011;6045;42.682;23.294;2023-01-15T00:59:00;7.67;;;4.30;;
11970;SDS011;6045;42.682;23.294;2023-01-15T01:01:27;5.57;;;4.10;;
11970;SDS011;6045;42.682;23.294;2023-01-15T01:03:54;6.97;;;4.30;;
11970;SDS011;6045;42.682;23.294;2023-01-15T01:06:20;5.70;;;3.63;;
11970;SDS011;6045;42.682;23.294;2023-01-15T01:08:48;5.37;;;4.63;;
11970;SDS011;6045;42.682;23.294;2023-01-15T01:11:15;6.70;;;3.63;;
11970;SDS011;6045;42.682;23.294;2023-01-15T01:13:45;8.57;;;4.97;;
11970;SDS011;6045;42.682;23.294;2023-01-15T01:19:03;9.70;;;4.27;;
11970;SDS011;6045;42.682;23.294;2023-01-15T01:21:32;6.77;;;3.93;;
11970;SDS011;6045;42.682;23.294;2023-01-15T01:24:00;7.37;;;4.37;;
11970;SDS011;6045;42.682;23.294;2023-01-15T01:26:27;4.87;;;3.47;;
11970;SDS011;6045;42.682;23.294;2023-01-15T01:28:56;9.93;;;4.67;;
11970;SDS011;6045;42.682;23.294;2023-01-15T01:31:23;4.70;;;3.87;;
11970;SDS011;6045;42.682;23.294;2023-01-15T01:33:50;4.37;;;3.03;;
11970;SDS011;6045;42.682;23.294;2023-01-15T01:36:19;6.07;;;4.13;;
11970;SDS011;6045;42.682;23.294;2023-01-15T01:38:51;7.83;;;5.40;;
11970;SDS011;6045;42.682;23.294;2023-01-15T01:41:18;7.97;;;4.87;;
11970;SDS011;6045;42.682;23.294;2023-01-15T01:43:52;9.43;;;4.77;;
11970;SDS011;6045;42.682;23.294;2023-01-15T01:46:23;4.20;;;3.37;;
11970;SDS011;6045;42.682;23.294;2023-01-15T01:48:51;6.80;;;3.93;;
11970;SDS011;6045;42.682;23.294;2023-01-15T01:51:21;8.80;;;5.67;;
11970;SDS011;6045;42.682;23.294;2023-01-15T01:53:50;9.80;;;5.63;;
11970;SDS011;6045;42.682;23.294;2023-01-15T01:56:18;8.97;;;5.40;;
11970;SDS011;6045;42.682;23.294;2023-01-15T01:58:46;6.47;;;4.43;;
11970;SDS011;6045;42.682;23.294;2023-01-15T02:01:18;7.70;;;5.50;;
11970;SDS011;6045;42.682;23.294;2023-01-15T02:03:47;9.27;;;5.23;;
11970;SDS011;6045;42.682;23.294;2023-01-15T02:06:15;7.57;;;4.80;;
11970;SDS011;6045;42.682;23.294;2023-01-15T02:08:42;9.93;;;5.50;;
11970;SDS011;6045;42.682;23.294;2023-01-15T02:11:11;16.27;;;4.73;;
11970;SDS011;6045;42.682;23.294;2023-01-15T02:13:42;7.07;;;4.67;;
11970;SDS011;6045;42.682;23.294;2023-01-15T02:16:20;7.53;;;5.40;;
11970;SDS011;6045;42.682;23.294;2023-01-15T02:18:54;10.93;;;5.67;;
11970;SDS011;6045;42.682;23.294;2023-01-15T02:21:25;9.00;;;5.07;;
11970;SDS011;6045;42.682;23.294;2023-01-15T02:24:08;7.90;;;4.83;;
11970;SDS011;6045;42.682;23.294;2023-01-15T02:26:46;6.40;;;5.67;;
11970;SDS011;6045;42.682;23.294;2023-01-15T02:29:25;10.63;;;4.43;;
11970;SDS011;6045;42.682;23.294;2023-01-15T02:31:56;8.53;;;4.27;;
11970;SDS011;6045;42.682;23.294;2023-01-15T02:34:28;9.00;;;5.50;;
11970;SDS011;6045;42.682;23.294;2023-01-15T02:36:59;6.30;;;4.57;;
11970;SDS011;6045;42.682;23.294;2023-01-15T02:39:29;7.60;;;5.10;;
11970;SDS011;6045;42.682;23.294;2023-01-15T02:42:00;6.13;;;3.80;;
11970;SDS011;6045;42.682;23.294;2023-01-15T02:44:29;8.03;;;5.07;;
11970;SDS011;6045;42.682;23.294;2023-01-15T02:46:59;8.47;;;4.20;;
11970;SDS011;6045;42.682;23.294;2023-01-15T02:49:28;10.00;;;4.80;;
11970;SDS011;6045;42.682;23.294;2023-01-15T02:52:02;9.63;;;4.80;;
11970;SDS011;6045;42.682;23.294;2023-01-15T02:54:34;8.03;;;5.23;;
11970;SDS011;6045;42.682;23.294;2023-01-15T02:57:09;7.43;;;5.47;;
11970;SDS011;6045;42.682;23.294;2023-01-15T02:59:37;8.10;;;5.33;;
11970;SDS011;6045;42.682;23.294;2023-01-15T03:02:09;7.30;;;4.57;;
11970;SDS011;6045;42.682;23.294;2023-01-15T03:04:39;9.67;;;5.60;;
11970;SDS011;6045;42.682;23.294;2023-01-15T03:07:10;9.17;;;5.63;;
11970;SDS011;6045;42.682;23.294;2023-01-15T03:09:43;12.47;;;5.77;;
11970;SDS011;6045;42.682;23.294;2023-01-15T03:12:14;7.73;;;4.63;;
11970;SDS011;6045;42.682;23.294;2023-01-15T03:14:43;10.17;;;5.87;;
11970;SDS011;6045;42.682;23.294;2023-01-15T03:17:22;8.83;;;5.87;;
11970;SDS011;6045;42.682;23.294;2023-01-15T03:19:55;10.50;;;5.20;;
11970;SDS011;6045;42.682;23.294;2023-01-15T03:22:25;8.87;;;4.80;;
11970;SDS011;6045;42.682;23.294;2023-01-15T03:24:54;8.33;;;4.63;;
11970;SDS011;6045;42.682;23.294;2023-01-15T03:27:27;13.80;;;7.40;;
11970;SDS011;6045;42.682;23.294;2023-01-15T03:29:58;6.43;;;4.67;;
11970;SDS011;6045;42.682;23.294;2023-01-15T03:32:27;6.90;;;4.47;;
11970;SDS011;6045;42.682;23.294;2023-01-15T03:34:55;6.87;;;5.13;;
11970;SDS011;6045;42.682;23.294;2023-01-15T03:37:23;8.47;;;4.60;;
11970;SDS011;6045;42.682;23.294;2023-01-15T03:39:52;8.17;;;4.47;;
11970;SDS011;6045;42.682;23.294;2023-01-15T03:42:25;7.70;;;4.33;;
11970;SDS011;6045;42.682;23.294;2023-01-15T03:45:05;9.13;;;4.83;;
11970;SDS011;6045;42.682;23.294;2023-01-15T03:47:39;6.93;;;4.07;;
11970;SDS011;6045;42.682;23.294;2023-01-15T03:50:16;5.17;;;3.80;;
11970;SDS011;6045;42.682;23.294;2023-01-15T03:52:49;7.80;;;4.80;;
11970;SDS011;6045;42.682;23.294;2023-01-15T03:55:24;8.77;;;4.60;;
11970;SDS011;6045;42.682;23.294;2023-01-15T03:57:59;6.70;;;4.63;;
11970;SDS011;6045;42.682;23.294;2023-01-15T04:00:31;7.43;;;3.57;;
11970;SDS011;6045;42.682;23.294;2023-01-15T04:03:01;6.50;;;3.70;;
11970;SDS011;6045;42.682;23.294;2023-01-15T04:05:31;4.43;;;3.50;;
11970;SDS011;6045;42.682;23.294;2023-01-15T04:07:59;8.57;;;3.77;;
11970;SDS011;6045;42.682;23.294;2023-01-15T04:10:27;5.70;;;3.50;;
11970;SDS011;6045;42.682;23.294;2023-01-15T04:12:54;6.83;;;3.87;;
11970;SDS011;6045;42.682;23.294;2023-01-15T04:15:22;7.67;;;4.50;;
11970;SDS011;6045;42.682;23.294;2023-01-15T04:17:49;6.63;;;4.87;;
11970;SDS011;6045;42.682;23.294;2023-01-15T04:20:15;5.50;;;4.30;;
11970;SDS011;6045;42.682;23.294;2023-01-15T04:22:42;7.03;;;4.03;;
11970;SDS011;6045;42.682;23.294;2023-01-15T04:25:09;6.37;;;3.53;;
11970;SDS011;6045;42.682;23.294;2023-01-15T04:27:37;5.83;;;3.63;;
11970;SDS011;6045;42.682;23.294;2023-01-15T04:30:04;6.90;;;4.43;;
11970;SDS011;6045;42.682;23.294;2023-01-15T04:32:33;7.37;;;3.37;;
11970;SDS011;6045;42.682;23.294;2023-01-15T04:35:00;6.17;;;3.47;;
11970;SDS011;6045;42.682;23.294;2023-01-15T04:37:26;3.67;;;2.57;;
11970;SDS011;6045;42.682;23.294;2023-01-15T04:39:53;5.30;;;3.67;;
11970;SDS011;6045;42.682;23.294;2023-01-15T04:42:20;6.27;;;3.30;;
11970;SDS011;6045;42.682;23.294;2023-01-15T04:45:04;8.20;;;5.00;;
11970;SDS011;6045;42.682;23.294;2023-01-15T04:47:33;3.13;;;2.30;;
11970;SDS011;6045;42.682;23.294;2023-01-15T04:49:59;7.13;;;2.93;;
11970;SDS011;6045;42.682;23.294;2023-01-15T04:52:26;3.80;;;2.13;;
11970;SDS011;6045;42.682;23.294;2023-01-15T04:54:53;6.33;;;3.43;;
11970;SDS011;6045;42.682;23.294;2023-01-15T04:57:20;4.80;;;2.40;;
11970;SDS011;6045;42.682;23.294;2023-01-15T04:59:47;5.73;;;4.00;;
11970;SDS011;6045;42.682;23.294;2023-01-15T05:02:14;4.90;;;3.20;;
11970;SDS011;6045;42.682;23.294;2023-01-15T05:04:42;6.83;;;3.87;;
11970;SDS011;6045;42.682;23.294;2023-01-15T05:07:09;9.97;;;4.47;;
11970;SDS011;6045;42.682;23.294;2023-01-15T05:09:35;5.20;;;3.57;;
11970;SDS011;6045;42.682;23.294;2023-01-15T05:12:02;4.53;;;3.47;;
11970;SDS011;6045;42.682;23.294;2023-01-15T05:14:30;6.77;;;4.00;;
11970;SDS011;6045;42.682;23.294;2023-01-15T05:16:57;5.97;;;3.57;;
11970;SDS011;6045;42.682;23.294;2023-01-15T05:19:23;4.10;;;3.10;;
11970;SDS011;6045;42.682;23.294;2023-01-15T05:21:51;4.23;;;2.97;;
11970;SDS011;6045;42.682;23.294;2023-01-15T05:24:18;10.00;;;3.83;;
11970;SDS011;6045;42.682;23.294;2023-01-15T05:26:45;8.30;;;4.10;;
11970;SDS011;6045;42.682;23.294;2023-01-15T05:29:12;6.87;;;4.20;;
11970;SDS011;6045;42.682;23.294;2023-01-15T05:31:39;7.77;;;4.10;;
11970;SDS011;6045;42.682;23.294;2023-01-15T05:34:09;8.90;;;2.73;;
11970;SDS011;6045;42.682;23.294;2023-01-15T05:36:36;4.87;;;3.40;;
11970;SDS011;6045;42.682;23.294;2023-01-15T05:39:05;3.87;;;2.53;;
11970;SDS011;6045;42.682;23.294;2023-01-15T05:41:32;8.37;;;4.33;;
11970;SDS011;6045;42.682;23.294;2023-01-15T05:44:14;10.03;;;4.07;;
11970;SDS011;6045;42.682;23.294;2023-01-15T05:46:44;6.33;;;4.03;;
11970;SDS011;6045;42.682;23.294;2023-01-15T05:49:13;6.17;;;4.33;;
11970;SDS011;6045;42.682;23.294;2023-01-15T05:51:41;5.27;;;3.33;;
11970;SDS011;6045;42.682;23.294;2023-01-15T05:54:11;6.10;;;4.00;;
11970;SDS011;6045;42.682;23.294;2023-01-15T05:56:38;7.10;;;4.93;;
11970;SDS011;6045;42.682;23.294;2023-01-15T05:59:05;6.13;;;4.07;;
11970;SDS011;6045;42.682;23.294;2023-01-15T06:01:33;4.53;;;3.47;;
11970;SDS011;6045;42.682;23.294;2023-01-15T06:04:00;7.27;;;4.57;;
11970;SDS011;6045;42.682;23.294;2023-01-15T06:06:28;8.00;;;4.13;;
11970;SDS011;6045;42.682;23.294;2023-01-15T06:08:55;5.83;;;4.37;;
11970;SDS011;6045;42.682;23.294;2023-01-15T06:11:23;5.87;;;3.87;;
11970;SDS011;6045;42.682;23.294;2023-01-15T06:13:51;9.20;;;4.93;;
11970;SDS011;6045;42.682;23.294;2023-01-15T06:16:17;9.73;;;5.03;;
11970;SDS011;6045;42.682;23.294;2023-01-15T06:18:44;7.20;;;4.60;;
11970;SDS011;6045;42.682;23.294;2023-01-15T06:21:12;7.30;;;5.17;;
11970;SDS011;6045;42.682;23.294;2023-01-15T06:23:40;10.40;;;6.03;;
11970;SDS011;6045;42.682;23.294;2023-01-15T06:26:09;7.87;;;4.33;;
11970;SDS011;6045;42.682;23.294;2023-01-15T06:28:39;6.63;;;5.37;;
11970;SDS011;6045;42.682;23.294;2023-01-15T06:31:06;4.83;;;3.27;;
11970;SDS011;6045;42.682;23.294;2023-01-15T06:33:37;9.47;;;4.80;;
11970;SDS011;6045;42.682;23.294;2023-01-15T06:36:05;8.77;;;3.90;;
11970;SDS011;6045;42.682;23.294;2023-01-15T06:38:34;6.17;;;3.77;;
11970;SDS011;6045;42.682;23.294;2023-01-15T06:41:01;10.30;;;5.70;;
11970;SDS011;6045;42.682;23.294;2023-01-15T06:43:50;4.97;;;4.33;;
11970;SDS011;6045;42.682;23.294;2023-01-15T06:46:34;3.43;;;3.10;;
11970;SDS011;6045;42.682;23.294;2023-01-15T06:49:19;9.53;;;5.17;;
11970;SDS011;6045;42.682;23.294;2023-01-15T06:51:45;6.77;;;4.60;;
11970;SDS011;6045;42.682;23.294;2023-01-15T06:54:12;8.83;;;5.17;;
11970;SDS011;6045;42.682;23.294;2023-01-15T06:56:39;7.47;;;5.17;;
11970;SDS011;6045;42.682;23.294;2023-01-15T06:59:07;8.87;;;7.03;;
11970;SDS011;6045;42.682;23.294;2023-01-15T07:01:34;14.87;;;5.17;;
11970;SDS011;6045;42.682;23.294;2023-01-15T07:04:00;10.90;;;6.70;;
11970;SDS011;6045;42.682;23.294;2023-01-15T07:06:28;8.43;;;5.27;;
11970;SDS011;6045;42.682;23.294;2023-01-15T07:08:54;6.30;;;3.97;;
11970;SDS011;6045;42.682;23.294;2023-01-15T07:11:21;3.27;;;2.40;;
11970;SDS011;6045;42.682;23.294;2023-01-15T07:13:48;7.27;;;4.77;;
11970;SDS011;6045;42.682;23.294;2023-01-15T07:16:16;13.80;;;6.37;;
11970;SDS011;6045;42.682;23.294;2023-01-15T07:18:53;9.70;;;6.23;;
11970;SDS011;6045;42.682;23.294;2023-01-15T07:21:20;11.60;;;6.53;;
11970;SDS011;6045;42.682;23.294;2023-01-15T07:23:47;10.20;;;6.37;;
11970;SDS011;6045;42.682;23.294;2023-01-15T07:26:14;9.70;;;6.47;;
11970;SDS011;6045;42.682;23.294;2023-01-15T07:28:41;11.43;;;8.00;;
11970;SDS011;6045;42.682;23.294;2023-01-15T07:31:08;9.10;;;5.90;;
11970;SDS011;6045;42.682;23.294;2023-01-15T07:33:36;13.50;;;6.97;;
11970;SDS011;6045;42.682;23.294;2023-01-15T07:36:03;14.27;;;6.67;;
11970;SDS011;6045;42.682;23.294;2023-01-15T07:38:31;14.10;;;7.20;;
11970;SDS011;6045;42.682;23.294;2023-01-15T07:40:58;12.23;;;6.50;;
11970;SDS011;6045;42.682;23.294;2023-01-15T07:43:42;7.50;;;5.83;;
11970;SDS011;6045;42.682;23.294;2023-01-15T07:46:27;8.93;;;5.37;;
11970;SDS011;6045;42.682;23.294;2023-01-15T07:49:12;8.47;;;5.30;;
11970;SDS011;6045;42.682;23.294;2023-01-15T07:51:57;11.43;;;6.43;;
11970;SDS011;6045;42.682;23.294;2023-01-15T07:54:24;14.93;;;5.23;;
11970;SDS011;6045;42.682;23.294;2023-01-15T07:56:51;9.30;;;5.47;;
11970;SDS011;6045;42.682;23.294;2023-01-15T07:59:19;9.93;;;4.73;;
11970;SDS011;6045;42.682;23.294;2023-01-15T08:01:45;7.23;;;4.40;;
11970;SDS011;6045;42.682;23.294;2023-01-15T08:04:14;6.80;;;3.30;;
11970;SDS011;6045;42.682;23.294;2023-01-15T08:06:40;7.20;;;4.23;;
11970;SDS011;6045;42.682;23.294;2023-01-15T08:09:07;7.47;;;4.80;;
11970;SDS011;6045;42.682;23.294;2023-01-15T08:11:34;6.43;;;4.30;;
11970;SDS011;6045;42.682;23.294;2023-01-15T08:14:18;9.45;;;4.85;;
11970;SDS011;6045;42.682;23.294;2023-01-15T08:17:02;7.90;;;4.47;;
11970;SDS011;6045;42.682;23.294;2023-01-15T08:19:30;10.33;;;5.00;;
11970;SDS011;6045;42.682;23.294;2023-01-15T08:21:58;7.63;;;4.68;;
11970;SDS011;6045;42.682;23.294;2023-01-15T08:24:25;7.75;;;5.50;;
11970;SDS011;6045;42.682;23.294;2023-01-15T08:26:52;7.80;;;4.90;;
11970;SDS011;6045;42.682;23.294;2023-01-15T08:29:19;11.65;;;7.03;;
11970;SDS011;6045;42.682;23.294;2023-01-15T08:31:47;10.65;;;6.05;;
11970;SDS011;6045;42.682;23.294;2023-01-15T08:34:14;11.00;;;6.60;;
11970;SDS011;6045;42.682;23.294;2023-01-15T08:36:48;12.63;;;7.55;;
11970;SDS011;6045;42.682;23.294;2023-01-15T08:39:21;10.43;;;8.15;;
11970;SDS011;6045;42.682;23.294;2023-01-15T08:41:47;12.77;;;7.68;;
11970;SDS011;6045;42.682;23.294;2023-01-15T08:44:14;14.60;;;7.40;;
11970;SDS011;6045;42.682;23.294;2023-01-15T08:46:41;12.77;;;7.15;;
11970;SDS011;6045;42.682;23.294;2023-01-15T08:49:08;13.97;;;6.73;;
11970;SDS011;6045;42.682;23.294;2023-01-15T08:51:35;9.80;;;6.47;;
11970;SDS011;6045;42.682;23.294;2023-01-15T08:54:04;10.63;;;6.40;;
11970;SDS011;6045;42.682;23.294;2023-01-15T08:56:31;10.30;;;6.18;;
11970;SDS011;6045;42.682;23.294;2023-01-15T08:58:57;9.82;;;5.65;;
11970;SDS011;6045;42.682;23.294;2023-01-15T09:01:24;6.88;;;5.15;;
11970;SDS011;6045;42.682;23.294;2023-01-15T09:03:51;9.07;;;5.30;;
11970;SDS011;6045;42.682;23.294;2023-01-15T09:06:17;8.90;;;4.90;;
11970;SDS011;6045;42.682;23.294;2023-01-15T09:08:44;9.20;;;4.70;;
11970;SDS011;6045;42.682;23.294;2023-01-15T09:11:12;6.28;;;3.25;;
11970;SDS011;6045;42.682;23.294;2023-01-15T09:13:39;7.40;;;4.15;;
11970;SDS011;6045;42.682;23.294;2023-01-15T09:16:06;5.82;;;3.08;;
11970;SDS011;6045;42.682;23.294;2023-01-15T09:18:35;3.58;;;3.03;;
11970;SDS011;6045;42.682;23.294;2023-01-15T09:21:03;8.32;;;4.43;;
11970;SDS011;6045;42.682;23.294;2023-01-15T09:23:30;6.47;;;4.07;;
11970;SDS011;6045;42.682;23.294;2023-01-15T09:25:57;6.13;;;4.73;;
11970;SDS011;6045;42.682;23.294;2023-01-15T09:28:27;5.60;;;4.10;;
11970;SDS011;6045;42.682;23.294;2023-01-15T09:30:54;6.00;;;4.13;;
11970;SDS011;6045;42.682;23.294;2023-01-15T09:33:21;6.57;;;4.43;;
11970;SDS011;6045;42.682;23.294;2023-01-15T09:35:48;9.02;;;5.10;;
11970;SDS011;6045;42.682;23.294;2023-01-15T09:38:16;7.60;;;4.45;;
11970;SDS011;6045;42.682;23.294;2023-01-15T09:40:46;10.02;;;5.72;;
11970;SDS011;6045;42.682;23.294;2023-01-15T09:43:19;8.67;;;4.90;;
11970;SDS011;6045;42.682;23.294;2023-01-15T09:45:57;8.47;;;5.20;;
11970;SDS011;6045;42.682;23.294;2023-01-15T09:48:32;8.47;;;5.23;;
11970;SDS011;6045;42.682;23.294;2023-01-15T09:51:13;8.40;;;5.17;;
11970;SDS011;6045;42.682;23.294;2023-01-15T09:53:48;7.80;;;5.30;;
11970;SDS011;6045;42.682;23.294;2023-01-15T09:56:25;9.17;;;5.07;;
11970;SDS011;6045;42.682;23.294;2023-01-15T09:58:54;13.93;;;6.23;;
11970;SDS011;6045;42.682;23.294;2023-01-15T10:01:25;12.53;;;6.07;;
11970;SDS011;6045;42.682;23.294;2023-01-15T10:03:56;9.13;;;6.40;;
11970;SDS011;6045;42.682;23.294;2023-01-15T10:06:29;13.40;;;6.87;;
11970;SDS011;6045;42.682;23.294;2023-01-15T10:09:01;9.10;;;4.93;;
11970;SDS011;6045;42.682;23.294;2023-01-15T10:11:36;12.70;;;6.33;;
11970;SDS011;6045;42.682;23.294;2023-01-15T10:17:16;14.03;;;7.53;;
11970;SDS011;6045;42.682;23.294;2023-01-15T10:19:47;10.33;;;6.73;;
11970;SDS011;6045;42.682;23.294;2023-01-15T10:22:16;9.13;;;6.23;;
11970;SDS011;6045;42.682;23.294;2023-01-15T10:25:01;13.00;;;6.73;;
11970;SDS011;6045;42.682;23.294;2023-01-15T10:27:34;9.70;;;5.80;;
11970;SDS011;6045;42.682;23.294;2023-01-15T10:30:04;6.53;;;3.80;;
11970;SDS011;6045;42.682;23.294;2023-01-15T10:32:41;7.27;;;5.37;;
11970;SDS011;6045;42.682;23.294;2023-01-15T10:35:19;7.53;;;4.47;;
11970;SDS011;6045;42.682;23.294;2023-01-15T10:37:50;12.27;;;5.63;;
11970;SDS011;6045;42.682;23.294;2023-01-15T10:43:27;9.73;;;6.20;;
11970;SDS011;6045;42.682;23.294;2023-01-15T10:46:01;12.90;;;6.60;;
11970;SDS011;6045;42.682;23.294;2023-01-15T10:48:39;7.80;;;5.93;;
11970;SDS011;6045;42.682;23.294;2023-01-15T10:51:12;10.30;;;5.70;;
11970;SDS011;6045;42.682;23.294;2023-01-15T10:53:44;12.00;;;5.43;;
11970;SDS011;6045;42.682;23.294;2023-01-15T10:56:16;7.67;;;5.50;;
11970;SDS011;6045;42.682;23.294;2023-01-15T10:58:49;9.63;;;5.53;;
11970;SDS011;6045;42.682;23.294;2023-01-15T11:01:20;9.03;;;5.50;;
11970;SDS011;6045;42.682;23.294;2023-01-15T11:03:53;6.37;;;4.37;;
11970;SDS011;6045;42.682;23.294;2023-01-15T11:06:20;12.30;;;6.17;;
11970;SDS011;6045;42.682;23.294;2023-01-15T11:08:50;9.43;;;5.17;;
11970;SDS011;6045;42.682;23.294;2023-01-15T11:11:19;8.43;;;5.00;;
11970;SDS011;6045;42.682;23.294;2023-01-15T11:14:04;10.50;;;4.87;;
11970;SDS011;6045;42.682;23.294;2023-01-15T11:16:48;8.40;;;4.50;;
11970;SDS011;6045;42.682;23.294;2023-01-15T11:19:36;8.47;;;5.00;;
11970;SDS011;6045;42.682;23.294;2023-01-15T11:22:09;9.27;;;5.37;;
11970;SDS011;6045;42.682;23.294;2023-01-15T11:24:44;8.33;;;5.00;;
11970;SDS011;6045;42.682;23.294;2023-01-15T11:27:14;7.68;;;5.35;;
11970;SDS011;6045;42.682;23.294;2023-01-15T11:29:43;6.43;;;4.82;;
11970;SDS011;6045;42.682;23.294;2023-01-15T11:32:17;7.80;;;4.45;;
11970;SDS011;6045;42.682;23.294;2023-01-15T11:34:53;8.10;;;5.10;;
11970;SDS011;6045;42.682;23.294;2023-01-15T11:37:21;7.30;;;4.65;;
11970;SDS011;6045;42.682;23.294;2023-01-15T11:39:51;9.10;;;6.03;;
11970;SDS011;6045;42.682;23.294;2023-01-15T11:42:18;7.93;;;5.00;;
11970;SDS011;6045;42.682;23.294;2023-01-15T11:45:11;10.45;;;5.85;;
11970;SDS011;6045;42.682;23.294;2023-01-15T11:47:57;8.80;;;5.72;;
11970;SDS011;6045;42.682;23.294;2023-01-15T11:50:48;11.70;;;5.35;;
11970;SDS011;6045;42.682;23.294;2023-01-15T11:53:18;8.23;;;5.60;;
11970;SDS011;6045;42.682;23.294;2023-01-15T11:55:55;8.70;;;4.78;;
11970;SDS011;6045;42.682;23.294;2023-01-15T11:58:26;7.53;;;4.85;;
11970;SDS011;6045;42.682;23.294;2023-01-15T12:00:54;8.90;;;5.10;;
11970;SDS011;6045;42.682;23.294;2023-01-15T12:03:23;9.35;;;4.72;;
11970;SDS011;6045;42.682;23.294;2023-01-15T12:05:56;7.40;;;4.57;;
11970;SDS011;6045;42.682;23.294;2023-01-15T12:08:32;8.52;;;4.80;;
11970;SDS011;6045;42.682;23.294;2023-01-15T12:11:11;7.88;;;5.05;;
11970;SDS011;6045;42.682;23.294;2023-01-15T12:13:50;8.05;;;4.95;;
11970;SDS011;6045;42.682;23.294;2023-01-15T12:16:28;8.15;;;5.13;;
11970;SDS011;6045;42.682;23.294;2023-01-15T12:19:00;7.30;;;4.95;;
11970;SDS011;6045;42.682;23.294;2023-01-15T12:21:48;5.85;;;4.20;;
11970;SDS011;6045;42.682;23.294;2023-01-15T12:24:38;8.07;;;5.50;;
11970;SDS011;6045;42.682;23.294;2023-01-15T12:27:18;7.47;;;5.00;;
11970;SDS011;6045;42.682;23.294;2023-01-15T12:29:57;7.88;;;4.93;;
11970;SDS011;6045;42.682;23.294;2023-01-15T12:32:28;7.00;;;4.85;;
11970;SDS011;6045;42.682;23.294;2023-01-15T12:35:01;7.78;;;4.40;;
11970;SDS011;6045;42.682;23.294;2023-01-15T12:37:34;7.38;;;4.15;;
11970;SDS011;6045;42.682;23.294;2023-01-15T12:40:14;5.95;;;4.60;;
11970;SDS011;6045;42.682;23.294;2023-01-15T12:42:45;6.10;;;4.13;;
11970;SDS011;6045;42.682;23.294;2023-01-15T12:45:33;5.10;;;3.40;;
11970;SDS011;6045;42.682;23.294;2023-01-15T12:48:08;7.00;;;3.60;;
11970;SDS011;6045;42.682;23.294;2023-01-15T12:50:41;5.68;;;3.92;;
11970;SDS011;6045;42.682;23.294;2023-01-15T12:53:13;5.15;;;3.78;;
11970;SDS011;6045;42.682;23.294;2023-01-15T12:55:45;5.97;;;3.88;;
11970;SDS011;6045;42.682;23.294;2023-01-15T12:58:19;6.72;;;3.88;;
11970;SDS011;6045;42.682;23.294;2023-01-15T13:00:58;5.32;;;3.63;;
11970;SDS011;6045;42.682;23.294;2023-01-15T13:03:31;5.22;;;3.58;;
11970;SDS011;6045;42.682;23.294;2023-01-15T13:06:04;5.22;;;4.43;;
11970;SDS011;6045;42.682;23.294;2023-01-15T13:08:36;5.57;;;4.07;;
11970;SDS011;6045;42.682;23.294;2023-01-15T13:11:08;5.68;;;3.60;;
11970;SDS011;6045;42.682;23.294;2023-01-15T13:13:38;5.10;;;3.63;;
11970;SDS011;6045;42.682;23.294;2023-01-15T13:16:08;6.28;;;4.07;;
11970;SDS011;6045;42.682;23.294;2023-01-15T13:18:45;6.28;;;3.33;;
11970;SDS011;6045;42.682;23.294;2023-01-15T13:21:24;5.78;;;3.65;;
11970;SDS011;6045;42.682;23.294;2023-01-15T13:24:00;5.85;;;3.95;;
11970;SDS011;6045;42.682;23.294;2023-01-15T13:26:52;5.70;;;3.83;;
11970;SDS011;6045;42.682;23.294;2023-01-15T13:29:24;5.20;;;3.33;;
11970;SDS011;6045;42.682;23.294;2023-01-15T13:32:02;5.32;;;3.63;;
11970;SDS011;6045;42.682;23.294;2023-01-15T13:34:37;5.20;;;4.13;;
11970;SDS011;6045;42.682;23.294;2023-01-15T13:37:13;5.43;;;3.53;;
11970;SDS011;6045;42.682;23.294;2023-01-15T13:39:46;4.60;;;3.28;;
11970;SDS011;6045;42.682;23.294;2023-01-15T13:42:16;5.82;;;3.47;;
11970;SDS011;6045;42.682;23.294;2023-01-15T13:44:58;5.38;;;4.13;;
11970;SDS011;6045;42.682;23.294;2023-01-15T13:47:31;4.53;;;3.58;;
11970;SDS011;6045;42.682;23.294;2023-01-15T13:50:02;5.32;;;3.90;;
11970;SDS011;6045;42.682;23.294;2023-01-15T13:52:32;6.90;;;4.55;;
11970;SDS011;6045;42.682;23.294;2023-01-15T13:55:08;6.38;;;4.25;;
11970;SDS011;6045;42.682;23.294;2023-01-15T13:57:37;6.13;;;3.78;;
11970;SDS011;6045;42.682;23.294;2023-01-15T14:00:06;4.03;;;3.35;;
11970;SDS011;6045;42.682;23.294;2023-01-15T14:02:36;4.85;;;3.60;;
11970;SDS011;6045;42.682;23.294;2023-01-15T14:05:11;8.40;;;4.32;;
11970;SDS011;6045;42.682;23.294;2023-01-15T14:07:50;5.28;;;3.72;;
11970;SDS011;6045;42.682;23.294;2023-01-15T14:16:19;5.53;;;3.88;;
11970;SDS011;6045;42.682;23.294;2023-01-15T14:21:47;5.47;;;3.85;;
11970;SDS011;6045;42.682;23.294;2023-01-15T14:24:38;8.02;;;3.42;;
11970;SDS011;6045;42.682;23.294;2023-01-15T14:27:16;7.82;;;3.78;;
11970;SDS011;6045;42.682;23.294;2023-01-15T14:30:06;6.72;;;3.45;;
11970;SDS011;6045;42.682;23.294;2023-01-15T14:32:50;4.72;;;3.42;;
11970;SDS011;6045;42.682;23.294;2023-01-15T14:35:32;5.25;;;3.85;;
11970;SDS011;6045;42.682;23.294;2023-01-15T14:38:02;7.57;;;3.80;;
11970;SDS011;6045;42.682;23.294;2023-01-15T14:40:31;6.55;;;3.60;;
11970;SDS011;6045;42.682;23.294;2023-01-15T14:43:00;6.70;;;3.22;;
11970;SDS011;6045;42.682;23.294;2023-01-15T14:45:30;5.33;;;3.23;;
11970;SDS011;6045;42.682;23.294;2023-01-15T14:48:02;6.90;;;4.63;;
11970;SDS011;6045;42.682;23.294;2023-01-15T14:50:31;5.50;;;3.60;;
11970;SDS011;6045;42.682;23.294;2023-01-15T14:53:13;6.83;;;4.07;;
11970;SDS011;6045;42.682;23.294;2023-01-15T14:55:48;6.70;;;4.20;;
11970;SDS011;6045;42.682;23.294;2023-01-15T14:58:23;6.73;;;4.37;;
11970;SDS011;6045;42.682;23.294;2023-01-15T15:00:57;6.33;;;3.70;;
11970;SDS011;6045;42.682;23.294;2023-01-15T15:03:30;5.83;;;4.23;;
11970;SDS011;6045;42.682;23.294;2023-01-15T15:06:03;4.63;;;4.00;;
11970;SDS011;6045;42.682;23.294;2023-01-15T15:08:32;5.70;;;4.10;;
11970;SDS011;6045;42.682;23.294;2023-01-15T15:11:00;7.20;;;4.53;;
11970;SDS011;6045;42.682;23.294;2023-01-15T15:13:50;5.43;;;4.20;;
11970;SDS011;6045;42.682;23.294;2023-01-15T15:16:23;5.63;;;3.97;;
11970;SDS011;6045;42.682;23.294;2023-01-15T15:18:54;6.37;;;4.20;;
11970;SDS011;6045;42.682;23.294;2023-01-15T15:21:26;5.73;;;3.60;;
11970;SDS011;6045;42.682;23.294;2023-01-15T15:23:56;7.87;;;3.70;;
11970;SDS011;6045;42.682;23.294;2023-01-15T15:26:28;7.13;;;4.37;;
11970;SDS011;6045;42.682;23.294;2023-01-15T15:28:56;7.73;;;4.73;;